sensor_id;sensor_type;location;lat;lon;timestamp;P1;durP1;ratioP1;P2;durP2;ratioP2
18259;SDS011;9256;52.236;5.712;2023-05-10T00:00:42;28.33;;;11.18;;
18259;SDS011;9256;52.236;5.712;2023-05-10T00:03:09;27.63;;;10.57;;
18259;SDS011;9256;52.236;5.712;2023-05-10T00:05:37;26.75;;;10.82;;
18259;SDS011;9256;52.236;5.712;2023-05-10T00:08:04;29.42;;;10.65;;
18259;SDS011;9256;52.236;5.712;2023-05-10T00:10:31;32.67;;;12.38;;
18259;SDS011;9256;52.236;5.712;2023-05-10T00:12:58;31.58;;;11.60;;
18259;SDS011;9256;52.236;5.712;2023-05-10T00:15:25;30.38;;;11.50;;
18259;SDS011;9256;52.236;5.712;2023-05-10T00:17:52;33.88;;;11.70;;
18259;SDS011;9256;52.236;5.712;2023-05-10T00:20:19;33.13;;;12.32;;
18259;SDS011;9256;52.236;5.712;2023-05-10T00:22:47;33.45;;;12.10;;
18259;SDS011;9256;52.236;5.712;2023-05-10T00:25:14;38.42;;;12.93;;
18259;SDS011;9256;52.236;5.712;2023-05-10T00:27:41;39.00;;;12.98;;
18259;SDS011;9256;52.236;5.712;2023-05-10T00:30:08;38.92;;;14.00;;
18259;SDS011;9256;52.236;5.712;2023-05-10T00:32:35;37.03;;;12.52;;
18259;SDS011;9256;52.236;5.712;2023-05-10T00:35:02;39.58;;;13.75;;
18259;SDS011;9256;52.236;5.712;2023-05-10T00:37:29;39.20;;;13.52;;
18259;SDS011;9256;52.236;5.712;2023-05-10T00:39:58;37.28;;;13.50;;
18259;SDS011;9256;52.236;5.712;2023-05-10T00:42:24;40.55;;;14.20;;
18259;SDS011;9256;52.236;5.712;2023-05-10T00:44:51;40.42;;;13.98;;
18259;SDS011;9256;52.236;5.712;2023-05-10T00:47:18;39.95;;;13.88;;
18259;SDS011;9256;52.236;5.712;2023-05-10T00:49:45;45.20;;;14.98;;
18259;SDS011;9256;52.236;5.712;2023-05-10T00:52:12;45.28;;;14.90;;
18259;SDS011;9256;52.236;5.712;2023-05-10T00:54:39;45.63;;;15.00;;
18259;SDS011;9256;52.236;5.712;2023-05-10T00:57:08;47.13;;;15.63;;
18259;SDS011;9256;52.236;5.712;2023-05-10T00:59:35;49.10;;;15.93;;
18259;SDS011;9256;52.236;5.712;2023-05-10T01:02:02;50.97;;;15.98;;
18259;SDS011;9256;52.236;5.712;2023-05-10T01:04:29;54.35;;;19.40;;
18259;SDS011;9256;52.236;5.712;2023-05-10T01:06:56;46.97;;;15.82;;
18259;SDS011;9256;52.236;5.712;2023-05-10T01:09:23;44.70;;;15.15;;
18259;SDS011;9256;52.236;5.712;2023-05-10T01:11:51;48.58;;;15.95;;
18259;SDS011;9256;52.236;5.712;2023-05-10T01:14:20;47.88;;;16.20;;
18259;SDS011;9256;52.236;5.712;2023-05-10T01:16:48;48.78;;;15.82;;
18259;SDS011;9256;52.236;5.712;2023-05-10T01:19:17;56.15;;;16.45;;
18259;SDS011;9256;52.236;5.712;2023-05-10T01:21:49;53.58;;;16.85;;
18259;SDS011;9256;52.236;5.712;2023-05-10T01:24:41;52.47;;;17.63;;
18259;SDS011;9256;52.236;5.712;2023-05-10T01:27:24;63.10;;;17.70;;
18259;SDS011;9256;52.236;5.712;2023-05-10T01:30:05;61.72;;;17.70;;
18259;SDS011;9256;52.236;5.712;2023-05-10T01:32:48;59.25;;;16.85;;
18259;SDS011;9256;52.236;5.712;2023-05-10T01:35:23;62.10;;;18.27;;
18259;SDS011;9256;52.236;5.712;2023-05-10T01:37:59;60.67;;;17.73;;
18259;SDS011;9256;52.236;5.712;2023-05-10T01:40:32;70.72;;;18.35;;
18259;SDS011;9256;52.236;5.712;2023-05-10T01:43:03;69.25;;;18.02;;
18259;SDS011;9256;52.236;5.712;2023-05-10T01:45:36;68.10;;;19.08;;
18259;SDS011;9256;52.236;5.712;2023-05-10T01:48:10;68.32;;;18.52;;
18259;SDS011;9256;52.236;5.712;2023-05-10T01:50:38;67.93;;;18.60;;
18259;SDS011;9256;52.236;5.712;2023-05-10T01:53:09;73.75;;;20.13;;
18259;SDS011;9256;52.236;5.712;2023-05-10T01:55:39;74.15;;;20.55;;
18259;SDS011;9256;52.236;5.712;2023-05-10T01:58:13;84.55;;;21.75;;
18259;SDS011;9256;52.236;5.712;2023-05-10T02:00:49;85.53;;;21.75;;
18259;SDS011;9256;52.236;5.712;2023-05-10T02:03:20;86.88;;;22.52;;
18259;SDS011;9256;52.236;5.712;2023-05-10T02:05:49;86.97;;;22.80;;
18259;SDS011;9256;52.236;5.712;2023-05-10T02:08:19;85.22;;;23.42;;
18259;SDS011;9256;52.236;5.712;2023-05-10T02:10:48;89.07;;;24.10;;
18259;SDS011;9256;52.236;5.712;2023-05-10T02:13:17;92.47;;;23.73;;
18259;SDS011;9256;52.236;5.712;2023-05-10T02:15:45;89.07;;;23.00;;
18259;SDS011;9256;52.236;5.712;2023-05-10T02:18:14;96.03;;;24.63;;
18259;SDS011;9256;52.236;5.712;2023-05-10T02:20:44;95.57;;;24.45;;
18259;SDS011;9256;52.236;5.712;2023-05-10T02:23:13;95.90;;;24.38;;
18259;SDS011;9256;52.236;5.712;2023-05-10T02:25:41;106.32;;;27.77;;
18259;SDS011;9256;52.236;5.712;2023-05-10T02:28:10;100.60;;;25.13;;
18259;SDS011;9256;52.236;5.712;2023-05-10T02:30:38;94.60;;;24.35;;
18259;SDS011;9256;52.236;5.712;2023-05-10T02:33:06;108.35;;;26.40;;
18259;SDS011;9256;52.236;5.712;2023-05-10T02:35:33;106.90;;;25.83;;
18259;SDS011;9256;52.236;5.712;2023-05-10T02:38:03;100.85;;;25.20;;
18259;SDS011;9256;52.236;5.712;2023-05-10T02:40:31;99.00;;;25.30;;
18259;SDS011;9256;52.236;5.712;2023-05-10T02:42:59;106.13;;;26.33;;
18259;SDS011;9256;52.236;5.712;2023-05-10T02:45:29;123.57;;;32.20;;
18259;SDS011;9256;52.236;5.712;2023-05-10T02:47:57;106.15;;;27.38;;
18259;SDS011;9256;52.236;5.712;2023-05-10T02:50:25;111.38;;;26.67;;
18259;SDS011;9256;52.236;5.712;2023-05-10T02:52:59;104.22;;;25.40;;
18259;SDS011;9256;52.236;5.712;2023-05-10T02:55:31;104.70;;;26.08;;
18259;SDS011;9256;52.236;5.712;2023-05-10T02:58:03;104.85;;;26.95;;
18259;SDS011;9256;52.236;5.712;2023-05-10T03:00:30;100.93;;;26.05;;
18259;SDS011;9256;52.236;5.712;2023-05-10T03:02:58;106.35;;;25.75;;
18259;SDS011;9256;52.236;5.712;2023-05-10T03:05:25;102.25;;;26.38;;
18259;SDS011;9256;52.236;5.712;2023-05-10T03:07:52;105.10;;;27.83;;
18259;SDS011;9256;52.236;5.712;2023-05-10T03:10:20;98.70;;;26.20;;
18259;SDS011;9256;52.236;5.712;2023-05-10T03:13:09;102.65;;;26.23;;
18259;SDS011;9256;52.236;5.712;2023-05-10T03:15:45;93.50;;;25.10;;
18259;SDS011;9256;52.236;5.712;2023-05-10T03:18:21;106.68;;;26.67;;
18259;SDS011;9256;52.236;5.712;2023-05-10T03:20:49;92.20;;;24.65;;
18259;SDS011;9256;52.236;5.712;2023-05-10T03:23:21;100.43;;;25.33;;
18259;SDS011;9256;52.236;5.712;2023-05-10T03:25:53;102.25;;;25.92;;
18259;SDS011;9256;52.236;5.712;2023-05-10T03:28:22;110.10;;;26.15;;
18259;SDS011;9256;52.236;5.712;2023-05-10T03:30:52;96.18;;;25.60;;
18259;SDS011;9256;52.236;5.712;2023-05-10T03:33:20;102.63;;;25.58;;
18259;SDS011;9256;52.236;5.712;2023-05-10T03:35:47;100.28;;;25.35;;
18259;SDS011;9256;52.236;5.712;2023-05-10T03:38:14;107.25;;;26.30;;
18259;SDS011;9256;52.236;5.712;2023-05-10T03:40:41;96.22;;;25.00;;
18259;SDS011;9256;52.236;5.712;2023-05-10T03:43:08;105.57;;;24.75;;
18259;SDS011;9256;52.236;5.712;2023-05-10T03:45:36;105.75;;;28.40;;
18259;SDS011;9256;52.236;5.712;2023-05-10T03:48:03;105.15;;;26.38;;
18259;SDS011;9256;52.236;5.712;2023-05-10T03:50:30;99.07;;;24.30;;
18259;SDS011;9256;52.236;5.712;2023-05-10T03:52:57;107.63;;;25.67;;
18259;SDS011;9256;52.236;5.712;2023-05-10T03:55:24;106.32;;;25.27;;
18259;SDS011;9256;52.236;5.712;2023-05-10T03:57:51;103.88;;;24.88;;
18259;SDS011;9256;52.236;5.712;2023-05-10T04:00:19;113.35;;;25.17;;
18259;SDS011;9256;52.236;5.712;2023-05-10T04:02:47;111.88;;;24.38;;
18259;SDS011;9256;52.236;5.712;2023-05-10T04:05:14;111.88;;;25.45;;
18259;SDS011;9256;52.236;5.712;2023-05-10T04:07:41;112.22;;;23.85;;
18259;SDS011;9256;52.236;5.712;2023-05-10T04:10:09;113.57;;;24.20;;
18259;SDS011;9256;52.236;5.712;2023-05-10T04:12:36;113.10;;;24.38;;
18259;SDS011;9256;52.236;5.712;2023-05-10T04:15:04;121.63;;;24.75;;
18259;SDS011;9256;52.236;5.712;2023-05-10T04:17:31;125.18;;;24.70;;
18259;SDS011;9256;52.236;5.712;2023-05-10T04:20:00;133.13;;;29.43;;
18259;SDS011;9256;52.236;5.712;2023-05-10T04:22:26;124.07;;;25.88;;
18259;SDS011;9256;52.236;5.712;2023-05-10T04:24:54;116.57;;;23.13;;
18259;SDS011;9256;52.236;5.712;2023-05-10T04:27:21;123.97;;;25.38;;
18259;SDS011;9256;52.236;5.712;2023-05-10T04:29:48;129.10;;;26.13;;
18259;SDS011;9256;52.236;5.712;2023-05-10T04:32:15;114.32;;;24.60;;
18259;SDS011;9256;52.236;5.712;2023-05-10T04:34:42;124.53;;;25.60;;
18259;SDS011;9256;52.236;5.712;2023-05-10T04:37:10;130.15;;;25.25;;
18259;SDS011;9256;52.236;5.712;2023-05-10T04:39:37;129.77;;;25.95;;
18259;SDS011;9256;52.236;5.712;2023-05-10T04:42:04;122.68;;;25.25;;
18259;SDS011;9256;52.236;5.712;2023-05-10T04:44:32;125.93;;;25.30;;
18259;SDS011;9256;52.236;5.712;2023-05-10T04:46:59;121.45;;;25.05;;
18259;SDS011;9256;52.236;5.712;2023-05-10T04:49:27;118.93;;;24.42;;
18259;SDS011;9256;52.236;5.712;2023-05-10T04:51:54;122.45;;;24.17;;
18259;SDS011;9256;52.236;5.712;2023-05-10T04:54:22;110.82;;;23.48;;
18259;SDS011;9256;52.236;5.712;2023-05-10T04:56:50;117.40;;;24.25;;
18259;SDS011;9256;52.236;5.712;2023-05-10T04:59:16;113.07;;;23.85;;
18259;SDS011;9256;52.236;5.712;2023-05-10T05:01:43;127.15;;;25.17;;
18259;SDS011;9256;52.236;5.712;2023-05-10T05:04:10;127.25;;;24.20;;
18259;SDS011;9256;52.236;5.712;2023-05-10T05:06:37;129.32;;;25.45;;
18259;SDS011;9256;52.236;5.712;2023-05-10T05:09:04;137.13;;;26.55;;
18259;SDS011;9256;52.236;5.712;2023-05-10T05:11:32;129.68;;;24.48;;
18259;SDS011;9256;52.236;5.712;2023-05-10T05:13:59;135.07;;;24.27;;
18259;SDS011;9256;52.236;5.712;2023-05-10T05:16:26;130.52;;;24.83;;
18259;SDS011;9256;52.236;5.712;2023-05-10T05:18:53;150.07;;;30.80;;
18259;SDS011;9256;52.236;5.712;2023-05-10T05:21:21;139.07;;;26.75;;
18259;SDS011;9256;52.236;5.712;2023-05-10T05:23:49;138.50;;;25.52;;
18259;SDS011;9256;52.236;5.712;2023-05-10T05:26:15;136.80;;;25.17;;
18259;SDS011;9256;52.236;5.712;2023-05-10T05:28:44;132.43;;;23.20;;
18259;SDS011;9256;52.236;5.712;2023-05-10T05:31:11;130.98;;;24.48;;
18259;SDS011;9256;52.236;5.712;2023-05-10T05:33:38;132.80;;;24.58;;
18259;SDS011;9256;52.236;5.712;2023-05-10T05:36:05;129.60;;;24.25;;
18259;SDS011;9256;52.236;5.712;2023-05-10T05:38:33;141.88;;;25.77;;
18259;SDS011;9256;52.236;5.712;2023-05-10T05:41:00;144.35;;;26.00;;
18259;SDS011;9256;52.236;5.712;2023-05-10T05:43:27;138.52;;;25.20;;
18259;SDS011;9256;52.236;5.712;2023-05-10T05:45:55;137.13;;;25.25;;
18259;SDS011;9256;52.236;5.712;2023-05-10T05:48:24;155.48;;;27.27;;
18259;SDS011;9256;52.236;5.712;2023-05-10T05:50:53;142.38;;;26.08;;
18259;SDS011;9256;52.236;5.712;2023-05-10T05:53:21;148.25;;;26.27;;
18259;SDS011;9256;52.236;5.712;2023-05-10T05:55:51;137.85;;;25.05;;
18259;SDS011;9256;52.236;5.712;2023-05-10T05:58:20;128.23;;;25.35;;
18259;SDS011;9256;52.236;5.712;2023-05-10T06:00:47;118.38;;;24.40;;
18259;SDS011;9256;52.236;5.712;2023-05-10T06:03:15;119.40;;;25.15;;
18259;SDS011;9256;52.236;5.712;2023-05-10T06:05:42;118.20;;;25.02;;
18259;SDS011;9256;52.236;5.712;2023-05-10T06:08:09;122.00;;;25.08;;
18259;SDS011;9256;52.236;5.712;2023-05-10T06:10:36;128.02;;;26.70;;
18259;SDS011;9256;52.236;5.712;2023-05-10T06:13:03;112.22;;;25.27;;
18259;SDS011;9256;52.236;5.712;2023-05-10T06:15:30;118.32;;;25.75;;
18259;SDS011;9256;52.236;5.712;2023-05-10T06:17:57;111.68;;;24.95;;
18259;SDS011;9256;52.236;5.712;2023-05-10T06:20:26;107.43;;;24.83;;
18259;SDS011;9256;52.236;5.712;2023-05-10T06:22:53;101.70;;;23.73;;
18259;SDS011;9256;52.236;5.712;2023-05-10T06:25:19;102.28;;;23.75;;
18259;SDS011;9256;52.236;5.712;2023-05-10T06:27:46;113.50;;;30.73;;
18259;SDS011;9256;52.236;5.712;2023-05-10T06:30:13;100.47;;;25.42;;
18259;SDS011;9256;52.236;5.712;2023-05-10T06:32:41;96.22;;;23.40;;
18259;SDS011;9256;52.236;5.712;2023-05-10T06:35:10;94.93;;;24.25;;
18259;SDS011;9256;52.236;5.712;2023-05-10T06:37:38;97.10;;;22.35;;
18259;SDS011;9256;52.236;5.712;2023-05-10T06:40:06;98.35;;;21.90;;
18259;SDS011;9256;52.236;5.712;2023-05-10T06:42:34;102.07;;;22.70;;
18259;SDS011;9256;52.236;5.712;2023-05-10T06:45:02;99.60;;;25.58;;
18259;SDS011;9256;52.236;5.712;2023-05-10T06:47:30;99.70;;;22.83;;
18259;SDS011;9256;52.236;5.712;2023-05-10T06:49:57;94.70;;;21.80;;
18259;SDS011;9256;52.236;5.712;2023-05-10T06:52:24;94.97;;;21.58;;
18259;SDS011;9256;52.236;5.712;2023-05-10T06:54:52;86.70;;;20.42;;
18259;SDS011;9256;52.236;5.712;2023-05-10T06:57:19;92.35;;;20.63;;
18259;SDS011;9256;52.236;5.712;2023-05-10T06:59:46;88.43;;;21.00;;
18259;SDS011;9256;52.236;5.712;2023-05-10T07:02:13;90.32;;;20.77;;
18259;SDS011;9256;52.236;5.712;2023-05-10T07:04:41;93.68;;;21.75;;
18259;SDS011;9256;52.236;5.712;2023-05-10T07:07:08;95.85;;;21.52;;
18259;SDS011;9256;52.236;5.712;2023-05-10T07:09:35;96.38;;;26.02;;
18259;SDS011;9256;52.236;5.712;2023-05-10T07:12:03;93.82;;;22.00;;
18259;SDS011;9256;52.236;5.712;2023-05-10T07:14:30;90.03;;;23.05;;
18259;SDS011;9256;52.236;5.712;2023-05-10T07:16:57;81.93;;;23.98;;
18259;SDS011;9256;52.236;5.712;2023-05-10T07:19:24;81.38;;;21.05;;
18259;SDS011;9256;52.236;5.712;2023-05-10T07:21:51;83.30;;;20.92;;
18259;SDS011;9256;52.236;5.712;2023-05-10T07:24:18;80.63;;;20.77;;
18259;SDS011;9256;52.236;5.712;2023-05-10T07:26:45;69.68;;;20.10;;
18259;SDS011;9256;52.236;5.712;2023-05-10T07:29:13;75.88;;;20.50;;
18259;SDS011;9256;52.236;5.712;2023-05-10T07:31:40;69.37;;;24.30;;
18259;SDS011;9256;52.236;5.712;2023-05-10T07:34:07;63.97;;;19.73;;
18259;SDS011;9256;52.236;5.712;2023-05-10T07:36:34;55.47;;;17.98;;
18259;SDS011;9256;52.236;5.712;2023-05-10T07:39:02;53.63;;;16.58;;
18259;SDS011;9256;52.236;5.712;2023-05-10T07:41:29;57.90;;;16.50;;
18259;SDS011;9256;52.236;5.712;2023-05-10T07:43:56;50.97;;;16.60;;
18259;SDS011;9256;52.236;5.712;2023-05-10T07:46:24;52.20;;;16.92;;
18259;SDS011;9256;52.236;5.712;2023-05-10T07:48:51;54.70;;;16.58;;
18259;SDS011;9256;52.236;5.712;2023-05-10T07:51:18;42.92;;;14.40;;
18259;SDS011;9256;52.236;5.712;2023-05-10T07:53:45;43.38;;;14.48;;
18259;SDS011;9256;52.236;5.712;2023-05-10T07:56:22;42.17;;;13.50;;
18259;SDS011;9256;52.236;5.712;2023-05-10T07:58:52;45.55;;;13.95;;
18259;SDS011;9256;52.236;5.712;2023-05-10T08:01:19;41.75;;;13.40;;
18259;SDS011;9256;52.236;5.712;2023-05-10T08:03:47;43.23;;;13.93;;
18259;SDS011;9256;52.236;5.712;2023-05-10T08:06:16;49.17;;;14.73;;
18259;SDS011;9256;52.236;5.712;2023-05-10T08:08:44;48.22;;;15.05;;
18259;SDS011;9256;52.236;5.712;2023-05-10T08:11:14;63.50;;;20.17;;
18259;SDS011;9256;52.236;5.712;2023-05-10T08:13:41;44.95;;;14.63;;
18259;SDS011;9256;52.236;5.712;2023-05-10T08:16:08;48.00;;;15.00;;
18259;SDS011;9256;52.236;5.712;2023-05-10T08:18:35;50.95;;;16.65;;
18259;SDS011;9256;52.236;5.712;2023-05-10T08:21:05;42.92;;;13.80;;
18259;SDS011;9256;52.236;5.712;2023-05-10T08:23:32;46.50;;;13.60;;
18259;SDS011;9256;52.236;5.712;2023-05-10T08:25:59;48.65;;;14.98;;
18259;SDS011;9256;52.236;5.712;2023-05-10T08:28:26;50.33;;;15.32;;
18259;SDS011;9256;52.236;5.712;2023-05-10T08:30:53;41.17;;;13.48;;
18259;SDS011;9256;52.236;5.712;2023-05-10T08:33:20;44.53;;;13.68;;
18259;SDS011;9256;52.236;5.712;2023-05-10T08:35:47;38.40;;;12.80;;
18259;SDS011;9256;52.236;5.712;2023-05-10T08:38:15;35.30;;;12.57;;
18259;SDS011;9256;52.236;5.712;2023-05-10T08:40:43;33.72;;;12.18;;
18259;SDS011;9256;52.236;5.712;2023-05-10T08:43:11;33.78;;;10.73;;
18259;SDS011;9256;52.236;5.712;2023-05-10T08:45:40;34.45;;;11.77;;
18259;SDS011;9256;52.236;5.712;2023-05-10T08:48:09;33.80;;;11.70;;
18259;SDS011;9256;52.236;5.712;2023-05-10T08:50:37;31.77;;;10.80;;
18259;SDS011;9256;52.236;5.712;2023-05-10T08:53:05;32.42;;;11.00;;
18259;SDS011;9256;52.236;5.712;2023-05-10T08:55:36;28.92;;;10.85;;
18259;SDS011;9256;52.236;5.712;2023-05-10T08:58:05;30.55;;;11.02;;
18259;SDS011;9256;52.236;5.712;2023-05-10T09:00:32;30.30;;;10.68;;
18259;SDS011;9256;52.236;5.712;2023-05-10T09:03:00;27.63;;;10.55;;
18259;SDS011;9256;52.236;5.712;2023-05-10T09:05:28;31.73;;;11.80;;
18259;SDS011;9256;52.236;5.712;2023-05-10T09:07:55;32.58;;;11.02;;
18259;SDS011;9256;52.236;5.712;2023-05-10T09:10:24;29.30;;;10.90;;
18259;SDS011;9256;52.236;5.712;2023-05-10T09:12:53;34.78;;;11.68;;
18259;SDS011;9256;52.236;5.712;2023-05-10T09:15:23;30.50;;;10.27;;
18259;SDS011;9256;52.236;5.712;2023-05-10T09:17:50;29.80;;;10.88;;
18259;SDS011;9256;52.236;5.712;2023-05-10T09:20:17;25.63;;;9.45;;
18259;SDS011;9256;52.236;5.712;2023-05-10T09:22:44;28.90;;;9.82;;
18259;SDS011;9256;52.236;5.712;2023-05-10T09:25:11;27.42;;;9.77;;
18259;SDS011;9256;52.236;5.712;2023-05-10T09:27:40;25.38;;;10.63;;
18259;SDS011;9256;52.236;5.712;2023-05-10T09:30:15;25.58;;;9.23;;
18259;SDS011;9256;52.236;5.712;2023-05-10T09:32:43;23.13;;;8.65;;
18259;SDS011;9256;52.236;5.712;2023-05-10T09:35:12;19.85;;;8.00;;
18259;SDS011;9256;52.236;5.712;2023-05-10T09:37:40;20.95;;;7.78;;
18259;SDS011;9256;52.236;5.712;2023-05-10T09:40:11;19.80;;;7.43;;
18259;SDS011;9256;52.236;5.712;2023-05-10T09:42:39;20.55;;;7.53;;
18259;SDS011;9256;52.236;5.712;2023-05-10T09:45:08;19.08;;;7.22;;
18259;SDS011;9256;52.236;5.712;2023-05-10T09:47:37;17.17;;;6.90;;
18259;SDS011;9256;52.236;5.712;2023-05-10T09:50:04;17.70;;;7.18;;
18259;SDS011;9256;52.236;5.712;2023-05-10T09:52:45;17.58;;;7.05;;
18259;SDS011;9256;52.236;5.712;2023-05-10T09:55:13;19.38;;;7.90;;
18259;SDS011;9256;52.236;5.712;2023-05-10T09:57:41;22.20;;;8.23;;
18259;SDS011;9256;52.236;5.712;2023-05-10T10:00:08;22.83;;;7.70;;
18259;SDS011;9256;52.236;5.712;2023-05-10T10:02:37;19.50;;;7.72;;
18259;SDS011;9256;52.236;5.712;2023-05-10T10:05:06;15.63;;;6.38;;
18259;SDS011;9256;52.236;5.712;2023-05-10T10:07:33;16.48;;;6.00;;
18259;SDS011;9256;52.236;5.712;2023-05-10T10:10:00;15.73;;;6.18;;
18259;SDS011;9256;52.236;5.712;2023-05-10T10:12:29;16.02;;;6.30;;
18259;SDS011;9256;52.236;5.712;2023-05-10T10:14:57;16.50;;;6.72;;
18259;SDS011;9256;52.236;5.712;2023-05-10T10:17:26;16.23;;;7.60;;
18259;SDS011;9256;52.236;5.712;2023-05-10T10:19:55;16.50;;;7.60;;
18259;SDS011;9256;52.236;5.712;2023-05-10T10:22:23;20.20;;;9.35;;
18259;SDS011;9256;52.236;5.712;2023-05-10T10:24:50;17.05;;;7.28;;
18259;SDS011;9256;52.236;5.712;2023-05-10T10:27:20;16.70;;;7.45;;
18259;SDS011;9256;52.236;5.712;2023-05-10T10:29:58;18.58;;;7.05;;
18259;SDS011;9256;52.236;5.712;2023-05-10T10:32:35;13.63;;;6.53;;
18259;SDS011;9256;52.236;5.712;2023-05-10T10:35:10;14.45;;;6.32;;
18259;SDS011;9256;52.236;5.712;2023-05-10T10:37:43;14.57;;;6.13;;
18259;SDS011;9256;52.236;5.712;2023-05-10T10:40:24;16.00;;;6.22;;
18259;SDS011;9256;52.236;5.712;2023-05-10T10:42:54;12.88;;;6.07;;
18259;SDS011;9256;52.236;5.712;2023-05-10T10:45:23;13.65;;;5.97;;
18259;SDS011;9256;52.236;5.712;2023-05-10T10:47:54;11.63;;;5.63;;
18259;SDS011;9256;52.236;5.712;2023-05-10T10:50:51;11.90;;;5.20;;
18259;SDS011;9256;52.236;5.712;2023-05-10T10:53:23;15.60;;;7.75;;
18259;SDS011;9256;52.236;5.712;2023-05-10T10:55:56;14.90;;;5.88;;
18259;SDS011;9256;52.236;5.712;2023-05-10T10:58:33;26.52;;;9.27;;
18259;SDS011;9256;52.236;5.712;2023-05-10T11:03:55;10.02;;;4.25;;
18259;SDS011;9256;52.236;5.712;2023-05-10T11:06:47;11.02;;;4.82;;
18259;SDS011;9256;52.236;5.712;2023-05-10T11:09:13;11.77;;;4.75;;
18259;SDS011;9256;52.236;5.712;2023-05-10T11:11:48;10.82;;;4.85;;
18259;SDS011;9256;52.236;5.712;2023-05-10T11:14:19;12.40;;;5.03;;
18259;SDS011;9256;52.236;5.712;2023-05-10T11:16:46;13.30;;;4.53;;
18259;SDS011;9256;52.236;5.712;2023-05-10T11:19:14;9.70;;;4.70;;
18259;SDS011;9256;52.236;5.712;2023-05-10T11:21:48;8.60;;;3.90;;
18259;SDS011;9256;52.236;5.712;2023-05-10T11:24:16;10.30;;;4.03;;
18259;SDS011;9256;52.236;5.712;2023-05-10T11:26:44;11.85;;;4.72;;
18259;SDS011;9256;52.236;5.712;2023-05-10T11:29:12;10.27;;;4.70;;
18259;SDS011;9256;52.236;5.712;2023-05-10T11:31:42;13.40;;;4.75;;
18259;SDS011;9256;52.236;5.712;2023-05-10T11:34:11;10.70;;;4.75;;
18259;SDS011;9256;52.236;5.712;2023-05-10T11:36:51;8.88;;;4.32;;
18259;SDS011;9256;52.236;5.712;2023-05-10T11:39:19;11.50;;;4.90;;
18259;SDS011;9256;52.236;5.712;2023-05-10T11:41:48;11.70;;;5.60;;
18259;SDS011;9256;52.236;5.712;2023-05-10T11:44:15;11.63;;;5.18;;
18259;SDS011;9256;52.236;5.712;2023-05-10T11:46:42;13.02;;;5.25;;
18259;SDS011;9256;52.236;5.712;2023-05-10T11:49:09;11.37;;;5.70;;
18259;SDS011;9256;52.236;5.712;2023-05-10T11:51:38;13.10;;;5.15;;
18259;SDS011;9256;52.236;5.712;2023-05-10T11:54:08;14.10;;;5.88;;
18259;SDS011;9256;52.236;5.712;2023-05-10T11:56:37;11.23;;;4.88;;
18259;SDS011;9256;52.236;5.712;2023-05-10T11:59:04;12.68;;;5.55;;
18259;SDS011;9256;52.236;5.712;2023-05-10T12:01:31;13.95;;;6.18;;
18259;SDS011;9256;52.236;5.712;2023-05-10T12:03:58;13.93;;;5.70;;
18259;SDS011;9256;52.236;5.712;2023-05-10T12:06:26;14.30;;;7.13;;
18259;SDS011;9256;52.236;5.712;2023-05-10T12:08:56;13.48;;;5.82;;
18259;SDS011;9256;52.236;5.712;2023-05-10T12:11:26;12.15;;;6.15;;
18259;SDS011;9256;52.236;5.712;2023-05-10T12:13:54;15.57;;;6.45;;
18259;SDS011;9256;52.236;5.712;2023-05-10T12:16:22;12.73;;;6.35;;
18259;SDS011;9256;52.236;5.712;2023-05-10T12:18:50;14.23;;;6.22;;
18259;SDS011;9256;52.236;5.712;2023-05-10T12:21:18;12.90;;;5.93;;
18259;SDS011;9256;52.236;5.712;2023-05-10T12:23:46;14.32;;;5.93;;
18259;SDS011;9256;52.236;5.712;2023-05-10T12:26:14;13.23;;;5.93;;
18259;SDS011;9256;52.236;5.712;2023-05-10T12:28:43;15.18;;;6.10;;
18259;SDS011;9256;52.236;5.712;2023-05-10T12:31:10;13.65;;;5.68;;
18259;SDS011;9256;52.236;5.712;2023-05-10T12:33:37;11.20;;;5.60;;
18259;SDS011;9256;52.236;5.712;2023-05-10T12:36:06;14.10;;;6.28;;
18259;SDS011;9256;52.236;5.712;2023-05-10T12:38:34;14.45;;;6.13;;
18259;SDS011;9256;52.236;5.712;2023-05-10T12:41:03;14.05;;;6.20;;
18259;SDS011;9256;52.236;5.712;2023-05-10T12:43:31;18.02;;;5.82;;
18259;SDS011;9256;52.236;5.712;2023-05-10T12:46:05;14.57;;;6.00;;
18259;SDS011;9256;52.236;5.712;2023-05-10T12:48:32;12.30;;;5.93;;
18259;SDS011;9256;52.236;5.712;2023-05-10T12:51:00;12.43;;;5.53;;
18259;SDS011;9256;52.236;5.712;2023-05-10T12:53:27;13.30;;;5.25;;
18259;SDS011;9256;52.236;5.712;2023-05-10T12:55:53;9.18;;;4.38;;
18259;SDS011;9256;52.236;5.712;2023-05-10T12:58:20;8.38;;;4.05;;
18259;SDS011;9256;52.236;5.712;2023-05-10T13:00:47;10.00;;;4.03;;
18259;SDS011;9256;52.236;5.712;2023-05-10T13:03:16;9.73;;;4.73;;
18259;SDS011;9256;52.236;5.712;2023-05-10T13:05:43;11.75;;;4.35;;
18259;SDS011;9256;52.236;5.712;2023-05-10T13:08:10;7.65;;;3.80;;
18259;SDS011;9256;52.236;5.712;2023-05-10T13:10:37;10.82;;;4.07;;
18259;SDS011;9256;52.236;5.712;2023-05-10T13:13:03;10.10;;;4.00;;
18259;SDS011;9256;52.236;5.712;2023-05-10T13:15:30;10.85;;;4.82;;
18259;SDS011;9256;52.236;5.712;2023-05-10T13:17:57;9.25;;;4.35;;
18259;SDS011;9256;52.236;5.712;2023-05-10T13:20:26;8.63;;;3.80;;
18259;SDS011;9256;52.236;5.712;2023-05-10T13:22:53;7.28;;;3.25;;
18259;SDS011;9256;52.236;5.712;2023-05-10T13:25:20;10.32;;;4.78;;
18259;SDS011;9256;52.236;5.712;2023-05-10T13:27:47;9.68;;;4.50;;
18259;SDS011;9256;52.236;5.712;2023-05-10T13:30:14;10.07;;;4.03;;
18259;SDS011;9256;52.236;5.712;2023-05-10T13:32:41;9.38;;;4.20;;
18259;SDS011;9256;52.236;5.712;2023-05-10T13:35:08;13.40;;;4.60;;
18259;SDS011;9256;52.236;5.712;2023-05-10T13:37:36;9.55;;;4.28;;
18259;SDS011;9256;52.236;5.712;2023-05-10T13:40:03;12.63;;;5.30;;
18259;SDS011;9256;52.236;5.712;2023-05-10T13:42:31;12.60;;;5.15;;
18259;SDS011;9256;52.236;5.712;2023-05-10T13:44:59;9.65;;;5.38;;
18259;SDS011;9256;52.236;5.712;2023-05-10T13:47:26;10.05;;;4.47;;
18259;SDS011;9256;52.236;5.712;2023-05-10T13:49:53;9.57;;;4.07;;
18259;SDS011;9256;52.236;5.712;2023-05-10T13:52:21;10.00;;;4.38;;
18259;SDS011;9256;52.236;5.712;2023-05-10T13:54:49;8.18;;;4.05;;
18259;SDS011;9256;52.236;5.712;2023-05-10T13:57:17;11.40;;;5.50;;
18259;SDS011;9256;52.236;5.712;2023-05-10T13:59:44;10.90;;;4.43;;
18259;SDS011;9256;52.236;5.712;2023-05-10T14:02:11;11.13;;;4.30;;
18259;SDS011;9256;52.236;5.712;2023-05-10T14:04:38;9.50;;;3.88;;
18259;SDS011;9256;52.236;5.712;2023-05-10T14:07:05;8.95;;;3.70;;
18259;SDS011;9256;52.236;5.712;2023-05-10T14:09:32;8.13;;;3.53;;
18259;SDS011;9256;52.236;5.712;2023-05-10T14:12:00;9.60;;;3.65;;
18259;SDS011;9256;52.236;5.712;2023-05-10T14:14:27;8.60;;;3.95;;
18259;SDS011;9256;52.236;5.712;2023-05-10T14:16:54;7.82;;;4.05;;
18259;SDS011;9256;52.236;5.712;2023-05-10T14:19:21;6.40;;;3.33;;
18259;SDS011;9256;52.236;5.712;2023-05-10T14:21:48;11.52;;;3.80;;
18259;SDS011;9256;52.236;5.712;2023-05-10T14:24:16;8.20;;;3.63;;
18259;SDS011;9256;52.236;5.712;2023-05-10T14:26:43;9.60;;;3.50;;
18259;SDS011;9256;52.236;5.712;2023-05-10T14:29:12;9.32;;;3.90;;
18259;SDS011;9256;52.236;5.712;2023-05-10T14:31:39;7.75;;;3.70;;
18259;SDS011;9256;52.236;5.712;2023-05-10T14:34:06;12.40;;;5.68;;
18259;SDS011;9256;52.236;5.712;2023-05-10T14:36:33;9.52;;;4.50;;
18259;SDS011;9256;52.236;5.712;2023-05-10T14:39:00;10.90;;;4.78;;
18259;SDS011;9256;52.236;5.712;2023-05-10T14:41:27;11.83;;;5.70;;
18259;SDS011;9256;52.236;5.712;2023-05-10T14:43:55;17.13;;;7.38;;
18259;SDS011;9256;52.236;5.712;2023-05-10T14:46:23;29.98;;;12.10;;